Terminal Aerodrome Forecast
Issued by NWS

Home | Current Version | Previous Version | Text Only | Print | Product List | Glossary On
Versions: 1 2 3 4 5 6 7 8 9 10 11 12 13 14 15 16
479
FTUS41 KCAR 222336
TAFFVE
TAF
KFVE 222336Z 2300/2324 VRB03KT P6SM BKN050
     FM230600 17006KT P6SM OVC025
     FM231200 17006KT 5SM -FZRAPL BR OVC010
     FM231400 18008KT 5SM -RA BR OVC008
     FM231800 18010KT 4SM -RA BR OVC005=

USA.gov is the U.S. government's official web portal to all federal, state and local government web resources and services.